Flight Track Log - Related Links

Times and Time Zones

All times are in EDT time to prevent confusion due to time zone crossing. See the SWA1707 flight status page for this flight to view local times or setup timezone preferences in your user account.

Time Position Orientation Groundspeed Altitude Reporting Facility
EDT Latitude Longitude Course Direction KTS MPH feet Rate Location/Type
06:03PM 36.2000 -86.6667 360° North 230 265 4,600  Level Nashville TRACON
06:04PM 36.1667 -86.7500 244° Southwest 272 313 8,100 3,402 Climbing Nashville TRACON
06:05PM 36.1053 -86.7939 210° Southwest 249 287 11,800 3,471 Climbing Memphis Center
06:06PM 36.0422 -86.8453 213° Southwest 254 292 15,100 2,700 Climbing Memphis Center
06:07PM 35.9747 -86.8994 213° Southwest 283 326 17,200 1,700 Climbing Memphis Center
06:08PM 35.9053 -86.9536 212° Southwest 313 360 18,500 1,900 Climbing Memphis Center
06:09PM 35.8217 -87.0211 213° Southwest 350 403 21,000 2,350 Climbing Memphis Center
06:10PM 35.7400 -87.0858 213° Southwest 359 413 23,200 1,950 Climbing Memphis Center
06:11PM 35.6522 -87.1583 214° Southwest 370 426 24,900 1,700 Climbing Memphis Center
06:12PM 35.5539 -87.2233 208° Southwest 392 451 26,600 1,650 Climbing Memphis Center
06:13PM 35.4450 -87.2936 208° Southwest 406 467 28,200 1,750 Climbing Memphis Center
06:14PM 35.3547 -87.3531 208° Southwest 406 467 30,100 1,900 Climbing Memphis Center
06:15PM 35.2561 -87.4150 207° Southwest 406 467 32,000 1,450 Climbing Memphis Center
06:16PM 35.1553 -87.4797 208° Southwest 406 467 33,000 1,300 Climbing Memphis Center
06:17PM 35.0422 -87.5519 208° Southwest 406 467 34,600 1,400 Climbing Memphis Center
06:18PM 34.9372 -87.6061 203° Southwest 412 474 35,800 700 Climbing Memphis Center
06:19PM 34.8317 -87.6550 201° Southwest 410 472 36,000 100 Climbing Memphis Center
06:20PM 34.7222 -87.7067 201° Southwest 415 478 36,000  Level Memphis Center
06:21PM 34.6128 -87.7606 202° Southwest 423 487 36,000  Level Memphis Center
06:22PM 34.5033 -87.8117 201° Southwest 429 494 36,000  Level Memphis Center
06:23PM 34.3917 -87.8653 202° Southwest 429 494 36,000  Level Memphis Center
06:24PM 34.2842 -87.9164 201° Southwest 423 487 36,000  Level Memphis Center
06:25PM 34.1850 -87.9642 202° Southwest 423 487 36,000  Level Memphis Center
06:26PM 34.0775 -88.0150 201° Southwest 414 476 36,000  Level Memphis Center
06:27PM 33.9719 -88.0628 201° Southwest 414 476 36,000  Level Memphis Center
06:28PM 33.8644 -88.1158 202° Southwest 414 476 36,000  Level Memphis Center
06:29PM 33.7422 -88.1739 202° Southwest 414 476 36,000  Level Memphis Center
06:30PM 33.6325 -88.2267 202° Southwest 419 482 36,000  Level Memphis Center
06:31PM 33.5522 -88.2808 209° Southwest 419 482 36,000  Level Memphis Center
06:32PM 33.4642 -88.3950 227° Southwest 399 459 36,000  Level Memphis Center
06:33PM 33.3756 -88.4742 217° Southwest 404 465 36,000  Level Memphis Center
06:34PM 33.2636 -88.5139 197° South 404 465 36,000  Level Memphis Center
06:35PM 33.1536 -88.5508 196° South 415 478 36,000  Level Memphis Center
06:36PM 33.0414 -88.5878 195° South 420 483 36,000  Level Memphis Center
06:37PM 32.9250 -88.6272 196° South 425 489 36,000  Level Memphis Center
06:38PM 32.8128 -88.6642 195° South 425 489 36,000  Level Memphis Center
06:39PM 32.7006 -88.7008 195° South 425 489 36,000  Level Memphis Center
06:40PM 32.5883 -88.7375 195° South 425 489 36,000 -50 Level Memphis Center
06:41PM 32.4739 -88.7764 196° South 425 489 35,900 -500 Descending Memphis Center
06:42PM 32.3658 -88.8200 199° South 420 483 35,000 -450 Descending Memphis Center
06:43PM 32.2792 -88.9028 219° Southwest 405 466 35,000  Level Memphis Center
06:44PM 32.1925 -88.9850 219° Southwest 399 459 35,000  Level Memphis Center
06:45PM 32.1058 -89.0675 219° Southwest 404 465 35,000  Level Memphis Center
06:46PM 32.0189 -89.1544 220° Southwest 410 472 35,000 -310 Level Memphis Center
06:48PM 31.8589 -89.3072 219° Southwest 398 458 34,100 -1,254 Descending Houston Center
06:49PM 31.7733 -89.3878 219° Southwest 397 457 31,300 -2,784 Descending Houston Center
06:50PM 31.6847 -89.4733 219° Southwest 408 470 28,300 -1,597 Descending Houston Center
06:51PM 31.5978 -89.5556 219° Southwest 407 468 28,000 -581 Descending Houston Center
06:52PM 31.5089 -89.6389 219° Southwest 408 470 27,100 -1,016 Descending Houston Center
06:53PM 31.4025 -89.7408 219° Southwest 412 474 25,900 -1,065 Descending Houston Center
06:54PM 31.3153 -89.8239 219° Southwest 408 470 24,900 -968 Descending Houston Center
06:55PM 31.2300 -89.9042 219° Southwest 400 460 23,900 -919 Descending Houston Center
06:56PM 31.1447 -89.9853 219° Southwest 397 457 23,000 -1,210 Descending Houston Center
06:57PM 31.0481 -90.0453 208° Southwest 403 464 21,400 -2,032 Descending Houston Center
06:59PM 30.9264 -90.0814 194° South 380 437 18,800 -2,160 Descending Houston Center
06:59PM 30.8656 -90.0992 194° South 370 426 17,800 -1,839 Descending Houston Center
07:00PM 30.8281 -90.1117 196° South 371 427 16,900 -2,164 Descending Houston Center
07:00PM 30.7683 -90.1322 196° South 355 409 15,600 -2,226 Descending Houston Center
07:01PM 30.7342 -90.1419 194° South 354 407 14,600 -2,400 Descending Houston Center
07:01PM 30.6692 -90.1631 196° South 343 395 13,200 -2,000 Descending Houston Center
07:02PM 30.6436 -90.1697 193° South 342 394 12,500 -1,869 Descending Houston Center
07:02PM 30.5800 -90.1908 196° South 330 380 11,300 -1,355 Descending Houston Center
07:03PM 30.5564 -90.1964 191° South 329 379 11,100 -1,180 Descending Houston Center
07:03PM 30.5003 -90.1772 164° South 294 338 10,100 -1,742 Descending Houston Center
07:04PM 30.4653 -90.1581 155° Southeast 295 339 9,300 -1,527 Descending Houston Center
07:04PM 30.4325 -90.1439 160° South 282 325 8,700 -1,645 Descending Houston Center
07:05PM 30.3956 -90.1256 157° South 281 323 7,600 -1,791 Descending Houston Center
07:05PM 30.3589 -90.1325 189° South 258 297 6,700 -1,742 Descending Houston Center
07:06PM 30.3278 -90.1417 194° South 256 295 5,800 -1,672 Descending Houston Center
07:06PM 30.2906 -90.1522 194° South 243 280 5,000 -1,258 Descending Houston Center
07:07PM 30.2642 -90.1622 198° South 247 284 4,500 -1,000 Descending Houston Center
07:07PM 30.2347 -90.1714 195° South 233 268 4,100 -968 Descending Houston Center
07:08PM 30.2025 -90.1825 197° South 239 275 3,500 -1,068 Descending Houston Center
07:08PM 30.1603 -90.1961 196° South 221 254 2,800 -871 Descending Houston Center
07:09PM 30.1325 -90.2050 195° South 228 262 2,600 -590 Descending Houston Center
07:09PM 30.1064 -90.2125 194° South 199 229 2,200 -871 Descending Houston Center
07:10PM 30.0833 -90.2194 195° South 206 237 1,700 -839 Descending Houston Center
07:11PM 30.0431 -90.2328 196° South 177 204 900 -786 Descending Houston Center
07:11PM 30.0258 -90.2400 200° South 135 155 600 -484 Descending Houston Center
07:12PM 30.0011 -90.2464 193° South 161 185 400 -300 Descending Houston Center
07:14PM 29.9833 -90.2500 190° South  Level FlightAware Approximate
07:21PM 29.9934 -90.2580 190° South  Level Estimated
07:22PM 29.9934 -90.2580 190° South  Level Estimated

Login

Don't have an account? Register now (free) for customized features, flight alerts, and more!